Time;durP1;ratioP1;P1;durP2;ratioP2;P2;SDS_P1;SDS_P2;PMS_P1;PMS_P2;Temp;Humidity;BMP_temperature;BMP_pressure;BME280_temperature;BME280_humidity;BME280_pressure;Samples;Min_cycle;Max_cycle;Signal;HPM_P1;HPM_P2
2020/12/03 00:00:42;;;;;;;20.35;12.75;;;9.80;69.80;;;;;;2076036;28;20451;-72
2020/12/03 00:01:43;;;;;;;19.80;12.82;;;9.70;69.70;;;;;;2079829;28;20493;-72
2020/12/03 00:02:44;;;;;;;20.92;13.05;;;9.80;69.90;;;;;;2084703;28;20036;-72
2020/12/03 00:03:48;;;;;;;22.73;12.88;;;9.70;70.00;;;;;;2084798;28;20245;-75
2020/12/03 00:04:49;;;;;;;24.73;13.70;;;9.80;70.10;;;;;;2084586;28;20056;-72
2020/12/03 00:06:15;;;;;;;24.80;13.45;;;9.80;70.10;;;;;;2084856;28;20444;-72
2020/12/03 00:07:15;;;;;;;24.13;13.07;;;9.80;70.10;;;;;;2084598;28;20087;-72
2020/12/03 00:08:16;;;;;;;23.10;13.48;;;9.80;70.10;;;;;;2084646;28;20495;-72
2020/12/03 00:09:18;;;;;;;23.10;13.65;;;9.80;70.10;;;;;;2084358;28;20073;-73
2020/12/03 00:10:19;;;;;;;25.00;13.25;;;9.80;70.10;;;;;;2084755;28;20040;-72
2020/12/03 00:11:22;;;;;;;23.13;13.35;;;9.80;70.10;;;;;;2085151;28;20500;-72
2020/12/03 00:12:23;;;;;;;21.10;13.70;;;9.80;70.10;;;;;;2084819;28;20061;-72
2020/12/03 00:13:25;;;;;;;20.65;12.32;;;9.80;70.20;;;;;;2083801;28;20056;-72
2020/12/03 00:14:27;;;;;;;21.30;13.57;;;9.80;70.30;;;;;;2085155;28;20033;-72
2020/12/03 00:15:27;;;;;;;18.00;13.13;;;9.80;70.30;;;;;;2084555;28;20033;-72
2020/12/03 00:16:30;;;;;;;22.25;13.30;;;9.80;70.30;;;;;;2083891;28;20096;-72
2020/12/03 00:17:30;;;;;;;23.92;13.00;;;9.80;70.30;;;;;;2084689;28;20049;-72
2020/12/03 00:18:34;;;;;;;20.80;13.00;;;9.80;70.30;;;;;;2084543;28;20025;-72
2020/12/03 00:19:34;;;;;;;24.17;13.93;;;9.80;70.40;;;;;;2084602;28;20435;-72
2020/12/03 00:20:36;;;;;;;25.80;13.52;;;9.80;70.30;;;;;;2084874;28;20055;-72
2020/12/03 00:21:46;;;;;;;25.05;13.38;;;9.80;70.30;;;;;;2084944;28;20047;-72
2020/12/03 00:22:47;;;;;;;19.80;13.05;;;9.80;70.30;;;;;;2084607;28;20105;-72
2020/12/03 00:23:47;;;;;;;21.13;13.20;;;9.80;70.30;;;;;;2084397;28;20029;-72
2020/12/03 00:24:48;;;;;;;25.50;13.95;;;9.80;70.30;;;;;;2084971;28;20105;-72
2020/12/03 00:25:51;;;;;;;20.45;12.35;;;9.90;70.40;;;;;;2084689;28;20028;-72
2020/12/03 00:26:53;;;;;;;20.88;12.48;;;9.90;70.40;;;;;;2084241;28;20033;-72
2020/12/03 00:27:55;;;;;;;20.65;13.30;;;9.90;70.40;;;;;;2085164;28;20036;-73
2020/12/03 00:28:57;;;;;;;20.48;12.98;;;9.90;70.20;;;;;;2084916;28;20026;-72
2020/12/03 00:29:57;;;;;;;22.42;13.63;;;9.90;70.30;;;;;;2084253;28;20080;-72
2020/12/03 00:30:58;;;;;;;20.98;12.85;;;9.90;70.50;;;;;;2083900;28;20033;-72
2020/12/03 00:31:59;;;;;;;23.83;13.77;;;9.90;70.40;;;;;;2084590;28;20021;-72
2020/12/03 00:32:59;;;;;;;24.02;13.23;;;9.90;70.40;;;;;;2084758;28;20474;-72
2020/12/03 00:34:04;;;;;;;21.95;12.88;;;9.90;70.40;;;;;;2084301;28;20092;-74
2020/12/03 00:35:05;;;;;;;20.92;13.60;;;10.00;70.40;;;;;;2085324;28;20041;-72
2020/12/03 00:36:05;;;;;;;21.80;13.45;;;10.00;70.40;;;;;;2084811;28;20644;-72
2020/12/03 00:37:06;;;;;;;19.17;12.35;;;9.90;70.20;;;;;;2083887;28;20028;-72
2020/12/03 00:38:06;;;;;;;24.77;13.98;;;10.00;70.30;;;;;;2084329;28;20064;-73
2020/12/03 00:39:12;;;;;;;22.10;12.93;;;10.00;70.30;;;;;;2083249;28;20039;-72
2020/12/03 00:40:13;;;;;;;20.65;12.50;;;10.00;70.20;;;;;;2084325;28;20022;-72
2020/12/03 00:41:18;;;;;;;22.10;13.57;;;10.00;70.20;;;;;;2084775;28;20507;-72
2020/12/03 00:42:18;;;;;;;23.75;13.45;;;10.00;70.10;;;;;;2084736;28;20108;-72
2020/12/03 00:43:19;;;;;;;20.90;12.77;;;10.00;70.00;;;;;;2084072;28;20505;-72
2020/12/03 00:44:21;;;;;;;22.58;14.07;;;10.00;69.90;;;;;;2083814;28;20344;-72
2020/12/03 00:45:22;;;;;;;21.10;13.10;;;10.00;69.90;;;;;;2084830;28;20032;-72
2020/12/03 00:46:33;;;;;;;24.65;13.65;;;10.00;69.90;;;;;;2082515;28;20036;-73
2020/12/03 00:47:34;;;;;;;24.20;13.80;;;10.00;69.90;;;;;;2084052;28;20021;-72
2020/12/03 00:48:35;;;;;;;23.20;13.88;;;10.10;70.00;;;;;;2084187;28;20036;-72
2020/12/03 00:49:35;;;;;;;22.35;13.82;;;10.00;69.90;;;;;;2084057;28;20439;-72
2020/12/03 00:50:36;;;;;;;24.15;13.68;;;10.10;69.90;;;;;;2084644;28;20096;-72
2020/12/03 00:51:37;;;;;;;21.60;13.20;;;10.10;69.80;;;;;;2084678;28;20057;-72
2020/12/03 00:52:37;;;;;;;24.52;13.90;;;10.00;69.70;;;;;;2084652;28;20091;-72
2020/12/03 00:53:40;;;;;;;22.10;13.75;;;10.00;69.70;;;;;;2083689;28;20040;-72
2020/12/03 00:54:41;;;;;;;21.50;13.40;;;10.00;69.80;;;;;;2084284;28;20031;-72
2020/12/03 00:55:43;;;;;;;24.48;12.95;;;10.00;69.80;;;;;;2085102;28;20025;-72
2020/12/03 00:56:46;;;;;;;21.52;13.60;;;10.00;69.80;;;;;;2084703;28;20036;-72
2020/12/03 00:57:47;;;;;;;20.98;13.63;;;10.00;69.70;;;;;;2084749;28;20029;-73
2020/12/03 00:58:48;;;;;;;24.67;13.88;;;10.00;69.70;;;;;;2083265;28;20092;-72
2020/12/03 00:59:48;;;;;;;21.73;13.82;;;10.00;69.70;;;;;;2083560;28;20033;-72
2020/12/03 01:00:49;;;;;;;21.83;13.45;;;10.00;69.60;;;;;;2084478;28;20509;-72
2020/12/03 01:01:49;;;;;;;23.35;12.75;;;10.00;69.60;;;;;;2083801;28;20829;-72
2020/12/03 01:02:50;;;;;;;22.25;14.07;;;10.00;69.60;;;;;;2084570;28;20021;-73
2020/12/03 01:03:51;;;;;;;21.50;13.63;;;10.00;69.60;;;;;;2084284;28;20041;-73
2020/12/03 01:04:52;;;;;;;22.48;13.55;;;10.10;69.70;;;;;;2084804;28;20303;-72
2020/12/03 01:05:52;;;;;;;20.73;13.38;;;10.00;69.60;;;;;;2084593;28;20064;-73
2020/12/03 01:06:53;;;;;;;21.45;13.70;;;10.10;69.60;;;;;;2084563;28;21326;-72
2020/12/03 01:07:53;;;;;;;21.95;13.80;;;10.00;69.60;;;;;;2084328;28;20399;-72
2020/12/03 01:08:54;;;;;;;19.65;13.20;;;10.00;69.70;;;;;;2084694;28;20263;-72
2020/12/03 01:09:55;;;;;;;22.25;13.95;;;10.10;69.80;;;;;;2084071;28;20031;-72
2020/12/03 01:10:55;;;;;;;22.02;13.52;;;10.10;69.70;;;;;;2084503;28;20114;-72
2020/12/03 01:11:56;;;;;;;21.15;13.85;;;10.10;69.70;;;;;;2085024;28;20081;-72
2020/12/03 01:12:57;;;;;;;24.08;14.02;;;10.00;69.60;;;;;;2084547;28;20032;-72
2020/12/03 01:13:57;;;;;;;21.25;14.00;;;10.10;69.70;;;;;;2083844;28;20043;-73
2020/12/03 01:14:58;;;;;;;24.13;14.15;;;10.10;69.80;;;;;;2084454;28;20103;-72
2020/12/03 01:15:59;;;;;;;20.98;14.05;;;10.00;69.60;;;;;;2083941;28;20082;-72
2020/12/03 01:16:59;;;;;;;21.13;13.38;;;10.00;69.60;;;;;;2084091;28;20436;-72
2020/12/03 01:18:00;;;;;;;22.90;13.88;;;10.10;69.80;;;;;;2084790;28;20087;-72
2020/12/03 01:19:00;;;;;;;22.67;14.23;;;10.10;69.70;;;;;;2083522;28;20348;-72
2020/12/03 01:20:09;;;;;;;19.40;13.07;;;10.10;69.80;;;;;;2083986;28;20379;-72
2020/12/03 01:21:10;;;;;;;22.08;13.18;;;10.00;69.70;;;;;;2084513;28;20101;-72
2020/12/03 01:22:11;;;;;;;21.63;13.55;;;10.10;69.80;;;;;;2084779;28;20431;-72
2020/12/03 01:23:11;;;;;;;20.00;13.02;;;10.10;69.80;;;;;;2084016;28;20554;-72
2020/12/03 01:24:12;;;;;;;21.83;13.00;;;10.10;69.90;;;;;;2084645;28;20029;-72
2020/12/03 01:25:13;;;;;;;22.80;13.13;;;10.00;69.80;;;;;;2084871;28;20269;-72
2020/12/03 01:26:18;;;;;;;19.85;12.68;;;10.10;69.90;;;;;;2083887;28;20296;-73
2020/12/03 01:27:19;;;;;;;19.23;12.60;;;10.10;70.00;;;;;;2084346;28;20070;-72
2020/12/03 01:28:19;;;;;;;20.83;13.45;;;10.10;70.00;;;;;;2084594;28;20022;-72
2020/12/03 01:29:22;;;;;;;20.67;12.98;;;10.10;69.90;;;;;;2084513;28;20060;-73
2020/12/03 01:30:22;;;;;;;21.38;13.30;;;10.10;70.00;;;;;;2083898;28;20032;-72
2020/12/03 01:31:23;;;;;;;19.55;12.52;;;10.10;70.00;;;;;;2083798;28;20360;-72
2020/12/03 01:32:24;;;;;;;20.55;13.45;;;10.10;70.00;;;;;;2084724;28;20033;-72
2020/12/03 01:33:25;;;;;;;18.20;12.65;;;10.10;70.00;;;;;;2083772;28;20064;-72
2020/12/03 01:34:26;;;;;;;22.17;13.32;;;10.10;69.90;;;;;;2084601;28;20017;-72
2020/12/03 01:35:26;;;;;;;23.10;13.95;;;10.10;69.90;;;;;;2083640;28;20078;-72
2020/12/03 01:36:27;;;;;;;20.60;13.52;;;10.10;69.80;;;;;;2083989;28;20041;-72
2020/12/03 01:37:27;;;;;;;21.50;12.85;;;10.10;69.80;;;;;;2084006;28;20033;-72
2020/12/03 01:38:28;;;;;;;20.75;13.43;;;10.10;69.80;;;;;;2083976;28;20108;-72
2020/12/03 01:39:29;;;;;;;21.58;13.70;;;10.10;69.70;;;;;;2083731;28;20018;-72
2020/12/03 01:40:29;;;;;;;24.58;14.15;;;10.10;69.60;;;;;;2083581;28;20033;-72
2020/12/03 01:41:30;;;;;;;21.58;13.90;;;10.10;69.60;;;;;;2084326;28;20527;-72
2020/12/03 01:42:30;;;;;;;21.05;13.48;;;10.10;69.60;;;;;;2084115;28;20029;-72
2020/12/03 01:43:31;;;;;;;22.27;13.45;;;10.10;69.70;;;;;;2082748;28;20064;-72
2020/12/03 01:44:45;;;;;;;22.08;13.00;;;10.10;69.70;;;;;;2083438;28;20040;-72
2020/12/03 01:45:58;;;;;;;20.67;12.88;;;10.10;69.60;;;;;;2084361;28;20061;-72
2020/12/03 01:46:58;;;;;;;22.25;12.98;;;10.10;69.60;;;;;;2086434;28;20025;-72
2020/12/03 01:47:59;;;;;;;23.52;12.88;;;10.10;69.60;;;;;;2086833;28;20028;-72
2020/12/03 01:49:28;;;;;;;21.23;13.25;;;10.10;69.60;;;;;;2084666;28;20029;-72
2020/12/03 01:50:28;;;;;;;18.85;11.98;;;10.10;69.60;;;;;;2081977;28;20029;-72
2020/12/03 01:51:37;;;;;;;22.48;13.20;;;10.10;69.60;;;;;;2084222;28;20407;-72
2020/12/03 01:52:37;;;;;;;19.17;12.25;;;10.10;69.60;;;;;;2083523;28;20482;-72
2020/12/03 01:53:38;;;;;;;21.60;13.10;;;10.10;69.50;;;;;;2083890;28;20021;-72
2020/12/03 01:54:39;;;;;;;24.45;13.75;;;10.10;69.60;;;;;;2083543;28;20017;-72
2020/12/03 01:55:39;;;;;;;22.00;13.60;;;10.10;69.60;;;;;;2083413;28;20489;-72
2020/12/03 01:57:04;;;;;;;21.67;13.30;;;10.10;69.60;;;;;;2084410;28;20052;-72
2020/12/03 01:58:05;;;;;;;19.58;11.90;;;10.10;69.60;;;;;;2083925;28;20151;-72
2020/12/03 01:59:06;;;;;;;20.90;12.65;;;10.10;69.60;;;;;;2084550;28;20048;-72
2020/12/03 02:00:13;;;;;;;24.42;13.95;;;10.10;69.50;;;;;;2083891;28;20426;-72
2020/12/03 02:01:14;;;;;;;19.50;12.82;;;10.10;69.60;;;;;;2082640;28;20071;-72
2020/12/03 02:02:17;;;;;;;22.77;13.15;;;10.10;69.60;;;;;;2084098;28;20021;-72
2020/12/03 02:03:17;;;;;;;22.25;13.60;;;10.10;69.60;;;;;;2083871;28;20025;-72
2020/12/03 02:04:18;;;;;;;22.55;12.65;;;10.10;70.40;;;;;;2083284;28;20120;-72
2020/12/03 02:05:23;;;;;;;21.92;13.15;;;10.10;69.70;;;;;;2084265;28;20509;-72
2020/12/03 02:06:27;;;;;;;21.52;12.80;;;10.10;69.80;;;;;;2083726;28;20032;-72
2020/12/03 02:07:27;;;;;;;21.65;13.07;;;10.10;69.80;;;;;;2083139;28;20367;-72
2020/12/03 02:08:28;;;;;;;23.13;13.63;;;10.10;69.80;;;;;;2082838;28;20135;-72
2020/12/03 02:09:29;;;;;;;21.65;12.63;;;10.10;69.70;;;;;;2083608;28;20038;-71
2020/12/03 02:10:30;;;;;;;22.35;13.27;;;10.10;69.60;;;;;;2084335;28;20025;-72
2020/12/03 02:11:32;;;;;;;20.20;13.20;;;10.10;69.60;;;;;;2084044;28;20534;-72
2020/12/03 02:12:33;;;;;;;22.13;13.48;;;10.10;69.80;;;;;;2082594;28;20033;-72
2020/12/03 02:13:33;;;;;;;23.27;13.57;;;10.10;69.70;;;;;;2083163;28;20187;-72
2020/12/03 02:14:34;;;;;;;21.35;13.55;;;10.10;69.80;;;;;;2083363;28;20104;-72
2020/12/03 02:15:36;;;;;;;21.95;13.30;;;10.10;69.80;;;;;;2083328;28;20084;-72
2020/12/03 02:16:40;;;;;;;21.30;12.93;;;10.10;69.80;;;;;;2083253;28;20305;-72
2020/12/03 02:17:41;;;;;;;20.35;12.95;;;10.10;69.70;;;;;;2083890;28;20021;-72
2020/12/03 02:18:46;;;;;;;21.67;12.77;;;10.10;69.70;;;;;;2090065;28;20404;-73
2020/12/03 02:19:55;;;;;;;20.75;12.82;;;10.10;69.80;;;;;;2089819;28;20028;-73
2020/12/03 02:20:56;;;;;;;21.80;12.97;;;10.10;69.70;;;;;;2083458;28;20039;-73
2020/12/03 02:22:01;;;;;;;22.15;13.30;;;10.10;69.70;;;;;;2083928;28;20616;-72
2020/12/03 02:23:13;;;;;;;21.50;13.93;;;10.10;69.60;;;;;;2084113;28;20075;-72
2020/12/03 02:24:13;;;;;;;20.92;12.88;;;10.10;69.60;;;;;;2083526;28;20025;-72
2020/12/03 02:25:15;;;;;;;19.63;12.68;;;10.10;69.60;;;;;;2083607;28;20371;-73
2020/12/03 02:26:16;;;;;;;21.45;12.65;;;10.20;69.60;;;;;;2083682;28;20233;-73
2020/12/03 02:27:21;;;;;;;20.10;12.68;;;10.10;70.20;;;;;;2083633;28;20029;-73
2020/12/03 02:28:22;;;;;;;20.35;13.07;;;10.20;69.60;;;;;;2086300;28;20239;-73
2020/12/03 02:29:22;;;;;;;21.65;13.35;;;10.10;69.50;;;;;;2087319;28;20375;-73
2020/12/03 02:30:23;;;;;;;23.52;14.05;;;10.10;69.40;;;;;;2084004;28;20498;-72
2020/12/03 02:31:23;;;;;;;21.10;13.30;;;10.10;69.50;;;;;;2082495;28;20403;-72
2020/12/03 02:32:24;;;;;;;20.55;13.50;;;10.20;69.50;;;;;;2083848;28;20463;-72
2020/12/03 02:33:24;;;;;;;22.63;13.45;;;10.10;69.50;;;;;;2084123;28;20044;-72
2020/12/03 02:34:25;;;;;;;22.67;13.48;;;10.20;69.60;;;;;;2083546;28;20044;-72
2020/12/03 02:35:25;;;;;;;21.40;12.95;;;10.20;69.60;;;;;;2084297;28;20118;-72
2020/12/03 02:36:26;;;;;;;22.60;13.73;;;10.20;69.60;;;;;;2084126;28;20525;-72
2020/12/03 02:37:28;;;;;;;22.05;12.70;;;10.20;69.60;;;;;;2083349;28;20380;-72
2020/12/03 02:38:31;;;;;;;18.88;12.32;;;10.10;69.50;;;;;;2082825;28;20029;-72
2020/12/03 02:39:34;;;;;;;21.77;13.35;;;10.10;69.50;;;;;;2092819;28;20561;-72
2020/12/03 02:40:34;;;;;;;20.55;12.73;;;10.10;69.60;;;;;;2099321;28;20039;-72
2020/12/03 02:41:36;;;;;;;18.23;10.98;;;10.10;69.60;;;;;;2083543;28;20148;-72
2020/12/03 02:42:37;;;;;;;22.33;12.48;;;10.20;69.60;;;;;;2083666;28;20052;-72
2020/12/03 02:43:38;;;;;;;21.05;12.63;;;10.20;69.70;;;;;;2083551;28;20029;-72
2020/12/03 02:44:44;;;;;;;20.77;12.95;;;10.20;69.70;;;;;;2083339;28;20052;-72
2020/12/03 02:45:45;;;;;;;19.25;11.63;;;10.20;69.70;;;;;;2083283;28;21253;-72
2020/12/03 02:46:46;;;;;;;22.13;13.48;;;10.10;69.60;;;;;;2083473;28;20064;-72
2020/12/03 02:47:46;;;;;;;20.60;12.25;;;10.20;69.70;;;;;;2083187;28;20037;-72
2020/12/03 02:48:47;;;;;;;20.63;12.70;;;10.20;69.70;;;;;;2082843;28;20025;-72
2020/12/03 02:49:49;;;;;;;20.50;13.63;;;10.10;69.60;;;;;;2091380;28;20028;-72
2020/12/03 02:50:49;;;;;;;22.38;13.13;;;10.20;69.70;;;;;;2083962;28;20017;-72
2020/12/03 02:51:50;;;;;;;20.38;12.77;;;10.10;69.60;;;;;;2082841;28;20541;-71
2020/12/03 02:52:50;;;;;;;19.17;12.10;;;10.20;69.70;;;;;;2083194;28;20112;-72
2020/12/03 02:53:51;;;;;;;21.65;13.15;;;10.20;69.60;;;;;;2082727;28;20031;-72
2020/12/03 02:54:52;;;;;;;21.90;13.02;;;10.20;69.50;;;;;;2083323;28;20020;-72
2020/12/03 02:55:53;;;;;;;21.20;12.68;;;10.20;69.50;;;;;;2084017;28;20348;-71
2020/12/03 02:56:53;;;;;;;21.48;12.85;;;10.20;69.50;;;;;;2084091;28;20064;-72
2020/12/03 02:57:54;;;;;;;20.13;12.43;;;10.20;69.60;;;;;;2083689;28;20021;-72
2020/12/03 02:58:55;;;;;;;20.63;13.18;;;10.20;69.50;;;;;;2085728;28;20037;-72
2020/12/03 02:59:55;;;;;;;20.80;13.50;;;10.20;69.50;;;;;;2087219;28;20056;-72
2020/12/03 03:00:56;;;;;;;21.33;12.18;;;10.20;69.60;;;;;;2083145;28;20017;-72
2020/12/03 03:01:56;;;;;;;21.15;12.60;;;10.20;69.50;;;;;;2083238;28;20252;-72
2020/12/03 03:02:57;;;;;;;20.20;13.07;;;10.20;69.50;;;;;;2083840;28;20053;-72
2020/12/03 03:03:58;;;;;;;22.50;12.82;;;10.20;70.20;;;;;;2083560;28;20029;-72
2020/12/03 03:04:58;;;;;;;20.92;12.45;;;10.20;69.50;;;;;;2083698;28;20029;-72
2020/12/03 03:05:59;;;;;;;20.08;12.15;;;10.20;69.50;;;;;;2083993;28;20021;-72
2020/12/03 03:07:00;;;;;;;22.77;12.95;;;10.20;69.60;;;;;;2083499;28;20183;-72
2020/12/03 03:08:00;;;;;;;23.88;13.40;;;10.20;69.50;;;;;;2082851;28;20063;-72
2020/12/03 03:09:03;;;;;;;23.05;12.82;;;10.20;69.50;;;;;;2078190;28;20044;-72
2020/12/03 03:10:03;;;;;;;22.50;13.30;;;10.20;69.50;;;;;;2082584;28;20103;-72
2020/12/03 03:11:04;;;;;;;23.15;13.15;;;10.20;69.60;;;;;;2083933;28;20397;-72
2020/12/03 03:12:05;;;;;;;22.20;13.55;;;10.20;69.60;;;;;;2083811;28;20021;-72
2020/12/03 03:13:05;;;;;;;20.80;12.90;;;10.20;69.60;;;;;;2083233;28;20540;-72
2020/12/03 03:14:06;;;;;;;22.02;13.73;;;10.20;69.70;;;;;;2083609;28;20112;-72
2020/12/03 03:15:06;;;;;;;22.95;13.95;;;10.20;69.70;;;;;;2083556;28;20033;-72
2020/12/03 03:16:07;;;;;;;23.17;13.48;;;10.20;69.60;;;;;;2082505;28;20029;-72
2020/12/03 03:17:08;;;;;;;22.90;13.73;;;10.20;69.70;;;;;;2082772;28;20029;-72
2020/12/03 03:18:09;;;;;;;22.30;12.88;;;10.20;69.70;;;;;;2083274;28;20085;-72
2020/12/03 03:19:10;;;;;;;21.13;12.52;;;10.20;69.70;;;;;;2083816;28;20033;-72
2020/12/03 03:20:11;;;;;;;24.60;13.65;;;10.20;69.70;;;;;;2083759;28;20013;-72
2020/12/03 03:21:12;;;;;;;22.25;13.95;;;10.20;69.70;;;;;;2083256;28;20353;-72
2020/12/03 03:22:12;;;;;;;21.45;12.85;;;10.20;69.60;;;;;;2082771;28;20024;-72
2020/12/03 03:23:14;;;;;;;22.27;13.13;;;10.20;69.60;;;;;;2083504;28;20021;-72
2020/12/03 03:24:15;;;;;;;24.65;14.50;;;10.30;69.70;;;;;;2083630;28;20498;-72
2020/12/03 03:25:16;;;;;;;23.17;13.60;;;10.20;69.60;;;;;;2083692;28;20044;-72
2020/12/03 03:26:16;;;;;;;21.95;13.55;;;10.20;69.50;;;;;;2082092;28;21544;-72
2020/12/03 03:27:17;;;;;;;22.60;13.93;;;10.20;69.40;;;;;;2083393;28;20075;-72
2020/12/03 03:28:17;;;;;;;21.95;13.70;;;10.30;69.60;;;;;;2083359;28;20028;-73
2020/12/03 03:29:18;;;;;;;22.73;13.88;;;10.30;69.60;;;;;;2083361;28;20095;-72
2020/12/03 03:30:19;;;;;;;19.98;12.93;;;10.20;69.50;;;;;;2083026;28;20040;-72
2020/12/03 03:31:20;;;;;;;20.00;12.95;;;10.20;69.50;;;;;;2083165;28;20041;-72
2020/12/03 03:32:21;;;;;;;22.38;13.60;;;10.20;69.50;;;;;;2083632;28;20021;-72
2020/12/03 03:33:21;;;;;;;23.13;13.82;;;10.20;69.40;;;;;;2082846;28;20496;-72
2020/12/03 03:34:22;;;;;;;21.95;13.65;;;10.20;69.40;;;;;;2082808;28;20499;-72
2020/12/03 03:35:22;;;;;;;21.67;13.68;;;10.30;70.10;;;;;;2083520;28;20053;-72
2020/12/03 03:36:23;;;;;;;22.30;13.38;;;10.20;69.30;;;;;;2083397;28;20343;-72
2020/12/03 03:37:23;;;;;;;22.85;14.18;;;10.30;69.30;;;;;;2075616;28;20479;-72
2020/12/03 03:38:24;;;;;;;24.20;14.05;;;10.30;69.30;;;;;;2083091;28;20452;-72
2020/12/03 03:39:25;;;;;;;20.67;13.10;;;10.30;69.30;;;;;;2083249;28;20125;-72
2020/12/03 03:40:25;;;;;;;23.55;14.70;;;10.30;69.20;;;;;;2082350;28;20020;-72
2020/12/03 03:41:26;;;;;;;22.60;13.88;;;10.20;69.10;;;;;;2075753;28;20060;-72
2020/12/03 03:42:27;;;;;;;21.77;12.88;;;10.20;69.10;;;;;;2083386;28;20021;-72
2020/12/03 03:43:27;;;;;;;22.55;13.77;;;10.20;69.10;;;;;;2082924;28;20361;-72
2020/12/03 03:44:28;;;;;;;21.92;13.45;;;10.20;69.10;;;;;;2083503;28;20037;-72
2020/12/03 03:45:28;;;;;;;25.35;14.02;;;10.20;69.10;;;;;;2083563;28;20021;-72
2020/12/03 03:46:29;;;;;;;23.00;14.00;;;10.20;69.10;;;;;;2082565;28;20029;-72
2020/12/03 03:47:29;;;;;;;23.60;14.73;;;10.20;69.10;;;;;;2083737;28;20024;-72
2020/12/03 03:48:30;;;;;;;21.48;13.90;;;10.20;69.10;;;;;;2083543;28;20025;-72
2020/12/03 03:49:31;;;;;;;22.98;14.10;;;10.20;69.10;;;;;;2082727;28;20021;-72
2020/12/03 03:50:31;;;;;;;21.35;13.73;;;10.20;69.10;;;;;;2083483;28;20017;-72
2020/12/03 03:51:32;;;;;;;21.08;13.63;;;10.20;69.10;;;;;;2082933;28;20021;-72
2020/12/03 03:52:32;;;;;;;22.90;13.50;;;10.20;69.10;;;;;;2082555;28;20100;-72
2020/12/03 03:53:33;;;;;;;24.17;13.82;;;10.20;69.00;;;;;;2083499;28;20444;-72
2020/12/03 03:54:34;;;;;;;22.98;13.40;;;10.20;69.00;;;;;;2083607;28;20235;-72
2020/12/03 03:55:34;;;;;;;22.95;13.35;;;10.20;69.00;;;;;;2083430;28;20041;-72
2020/12/03 03:56:35;;;;;;;22.33;13.68;;;10.20;69.00;;;;;;2083582;28;20029;-72
2020/12/03 03:57:36;;;;;;;24.67;13.95;;;10.20;69.00;;;;;;2083531;28;20028;-73
2020/12/03 03:58:36;;;;;;;22.95;14.15;;;10.20;69.00;;;;;;2083080;28;20481;-73
2020/12/03 03:59:37;;;;;;;25.48;14.30;;;10.20;69.00;;;;;;2082811;28;20033;-72
2020/12/03 04:00:43;;;;;;;20.73;12.65;;;10.20;69.00;;;;;;2083864;28;20021;-72
2020/12/03 04:01:43;;;;;;;20.83;12.88;;;10.20;69.00;;;;;;2081666;28;20068;-72
2020/12/03 04:02:45;;;;;;;23.27;14.18;;;10.20;69.10;;;;;;2082723;28;20022;-72
2020/12/03 04:03:46;;;;;;;21.05;13.23;;;10.20;69.10;;;;;;2082968;28;20272;-72
2020/12/03 04:04:47;;;;;;;23.13;12.65;;;10.10;69.10;;;;;;2083478;28;20341;-72
2020/12/03 04:05:52;;;;;;;22.98;12.50;;;10.10;69.10;;;;;;2083764;28;20041;-72
2020/12/03 04:06:52;;;;;;;24.05;14.10;;;10.10;69.10;;;;;;2083253;28;20033;-72
2020/12/03 04:07:53;;;;;;;20.80;12.77;;;10.10;69.10;;;;;;2083839;28;20021;-72
2020/12/03 04:08:53;;;;;;;21.33;13.77;;;10.10;69.00;;;;;;2082996;28;20068;-72
2020/12/03 04:09:54;;;;;;;19.88;12.98;;;10.10;69.10;;;;;;2083343;28;20126;-72
2020/12/03 04:10:55;;;;;;;19.20;12.38;;;10.10;69.00;;;;;;2084192;28;20356;-72
2020/12/03 04:11:55;;;;;;;21.88;13.20;;;10.10;68.90;;;;;;2083248;28;20028;-72
2020/12/03 04:12:56;;;;;;;22.38;12.45;;;10.10;68.90;;;;;;2084193;28;20056;-72
2020/12/03 04:13:57;;;;;;;20.45;13.15;;;10.10;68.90;;;;;;2085120;28;20074;-73
2020/12/03 04:15:00;;;;;;;20.80;11.48;;;10.10;68.90;;;;;;2084736;28;20501;-72
2020/12/03 04:16:00;;;;;;;19.67;12.57;;;10.10;69.60;;;;;;2084927;28;20115;-72
2020/12/03 04:17:01;;;;;;;20.50;12.30;;;10.10;68.80;;;;;;2084728;28;20022;-72
2020/12/03 04:18:02;;;;;;;20.92;12.65;;;10.10;68.70;;;;;;2085366;28;20032;-72
2020/12/03 04:19:03;;;;;;;22.33;12.73;;;10.10;68.80;;;;;;2084265;28;20061;-73
2020/12/03 04:20:06;;;;;;;19.10;12.60;;;10.10;68.90;;;;;;2084872;28;20071;-72
2020/12/03 04:21:09;;;;;;;19.85;11.88;;;10.00;68.80;;;;;;2085045;28;20029;-72
2020/12/03 04:22:09;;;;;;;20.73;12.60;;;10.00;68.80;;;;;;2091713;28;20052;-72
2020/12/03 04:23:10;;;;;;;20.42;12.38;;;10.00;68.80;;;;;;2092658;28;20017;-71
2020/12/03 04:24:11;;;;;;;21.02;12.35;;;10.00;68.90;;;;;;2085323;28;20026;-72
2020/12/03 04:25:12;;;;;;;19.58;12.27;;;10.00;69.00;;;;;;2084182;28;20044;-72
2020/12/03 04:26:13;;;;;;;20.45;11.88;;;10.00;69.00;;;;;;2084491;28;20017;-72
2020/12/03 04:27:13;;;;;;;19.55;11.52;;;10.00;68.90;;;;;;2085087;28;20017;-72
2020/12/03 04:28:14;;;;;;;23.10;12.95;;;10.00;68.90;;;;;;2084315;28;20029;-72
2020/12/03 04:29:15;;;;;;;21.52;12.75;;;10.00;68.90;;;;;;2084063;28;20496;-72
2020/12/03 04:30:15;;;;;;;23.30;12.15;;;10.00;68.90;;;;;;2084753;28;20045;-72
2020/12/03 04:31:16;;;;;;;20.83;11.30;;;10.00;68.90;;;;;;2084024;28;20522;-72
2020/12/03 04:32:16;;;;;;;17.98;11.85;;;10.00;68.90;;;;;;2084734;28;20347;-72
2020/12/03 04:33:17;;;;;;;18.55;11.82;;;10.00;68.90;;;;;;2085174;28;20033;-72
2020/12/03 04:34:18;;;;;;;19.15;10.82;;;10.00;68.90;;;;;;2084463;28;20102;-72
2020/12/03 04:35:19;;;;;;;18.08;10.85;;;10.00;68.90;;;;;;2084477;28;20041;-72
2020/12/03 04:36:19;;;;;;;20.00;11.65;;;10.00;68.90;;;;;;2084929;28;20030;-72
2020/12/03 04:37:20;;;;;;;20.55;12.10;;;10.00;68.90;;;;;;2084854;28;20029;-72
2020/12/03 04:38:21;;;;;;;19.05;11.70;;;10.00;68.80;;;;;;2084723;28;20017;-72
2020/12/03 04:39:22;;;;;;;21.13;12.20;;;10.00;68.80;;;;;;2083997;28;20041;-72
2020/12/03 04:40:30;;;;;;;18.42;11.00;;;10.00;68.80;;;;;;2084413;28;20112;-72
2020/12/03 04:41:31;;;;;;;20.38;11.52;;;10.00;68.80;;;;;;2084662;28;20274;-72
2020/12/03 04:42:34;;;;;;;15.60;9.77;;;10.00;68.80;;;;;;2084455;28;20420;-72
2020/12/03 04:43:42;;;;;;;19.60;11.10;;;10.00;68.80;;;;;;2086767;28;20036;-73
2020/12/03 04:44:43;;;;;;;18.60;11.05;;;10.00;68.90;;;;;;2087008;28;20049;-72
2020/12/03 04:45:48;;;;;;;19.92;11.27;;;10.00;69.00;;;;;;2084452;28;20017;-72
2020/12/03 04:47:12;;;;;;;19.02;10.98;;;10.00;68.90;;;;;;2083428;28;20452;-72
2020/12/03 04:48:32;;;;;;;16.10;9.63;;;10.00;68.90;;;;;;2084738;28;20095;-72
2020/12/03 04:49:46;;;;;;;16.67;9.73;;;10.00;68.80;;;;;;2084398;28;20039;-72
2020/12/03 04:51:11;;;;;;;17.52;10.13;;;10.00;68.70;;;;;;2085075;28;20364;-72
2020/12/03 04:52:53;;;;;;;16.65;9.65;;;10.00;68.70;;;;;;2084864;28;20044;-72
2020/12/03 04:54:07;;;;;;;14.88;9.23;;;10.00;68.60;;;;;;2076731;28;20068;-72
2020/12/03 04:55:24;;;;;;;14.15;9.15;;;10.00;68.50;;;;;;2084491;28;20048;-72
2020/12/03 04:56:31;;;;;;;15.20;9.75;;;10.00;68.50;;;;;;2078111;28;20529;-71
2020/12/03 04:57:41;;;;;;;17.75;10.25;;;10.00;68.50;;;;;;2084095;28;20079;-71
2020/12/03 04:58:47;;;;;;;18.10;10.55;;;10.10;68.60;;;;;;2083528;28;20426;-71
2020/12/03 04:59:54;;;;;;;16.23;9.85;;;10.10;68.60;;;;;;2084485;28;20108;-71
2020/12/03 05:01:30;;;;;;;15.88;10.23;;;10.00;68.60;;;;;;2084376;28;20033;-72
2020/12/03 05:02:59;;;;;;;19.00;10.60;;;10.00;68.60;;;;;;2084336;28;20507;-71
2020/12/03 05:04:11;;;;;;;13.80;9.10;;;10.00;68.60;;;;;;2084093;28;20034;-71
2020/12/03 05:05:25;;;;;;;16.05;9.77;;;10.00;68.60;;;;;;2084253;28;20497;-71
2020/12/03 05:06:42;;;;;;;16.40;10.02;;;10.00;68.70;;;;;;2083879;28;20536;-71
2020/12/03 05:07:51;;;;;;;15.45;10.00;;;10.10;68.70;;;;;;2084715;28;20024;-72
2020/12/03 05:09:00;;;;;;;14.23;9.70;;;10.10;68.70;;;;;;2085452;28;20033;-71
2020/12/03 05:10:16;;;;;;;15.98;9.85;;;10.00;68.60;;;;;;2084513;28;20586;-71
2020/12/03 05:11:22;;;;;;;15.05;10.10;;;10.00;68.60;;;;;;2084234;28;20041;-72
2020/12/03 05:12:27;;;;;;;17.08;10.18;;;10.00;68.60;;;;;;2084329;28;20026;-71
2020/12/03 05:13:34;;;;;;;15.60;9.80;;;10.00;68.70;;;;;;2084256;28;20094;-72
2020/12/03 05:14:42;;;;;;;15.38;9.68;;;10.00;68.70;;;;;;2084888;28;20503;-72
2020/12/03 05:15:42;;;;;;;15.55;9.00;;;10.00;68.70;;;;;;2084839;28;20029;-72
2020/12/03 05:16:54;;;;;;;13.35;8.52;;;10.00;68.70;;;;;;2083465;28;20029;-72
2020/12/03 05:18:16;;;;;;;15.15;9.52;;;10.00;68.60;;;;;;2084239;28;20031;-72
2020/12/03 05:19:32;;;;;;;14.85;9.73;;;10.00;68.60;;;;;;2084012;28;20100;-72